Wednesday, January 17, 2018, 4:39 PM EST
Back to Local

KHWV, Shirley Brookhaven Airport

Location: Shirley, NY, United States Lat: 40.817
Local Time: 4:39 PM EST (21:39 GMT) Lon: -72.867
Time Zone: US/Eastern Elev: 82 ft

Show me the last for .
Show Decoded

2018-01-17 16:08 METAR KHWV 172108Z AUTO 31006KT 7SM OVC004 01/01 A3014 RMK AO2 T00110011 =
2018-01-17 15:56 METAR KHWV 172056Z AUTO 31007KT 7SM OVC005 02/02 A3014 RMK AO2
                 UPE00B27E33SNB00E27 SLP207 P0000 60002 T00170017 56008 =
2018-01-17 14:56 METAR KHWV 171956Z AUTO 31007KT 6SM UP BR OVC005 02/02 A3015 RMK AO2
                 UPB07E17B36SNE07B17E36 SLP209 P0001 T00170017 =
2018-01-17 14:28 METAR KHWV 171928Z AUTO 34006KT 4SM -SN BR OVC005 02/02 A3015 RMK AO2
                 UPB07E17SNE07B17 P0000 T00170017 =
2018-01-17 13:56 METAR KHWV 171856Z AUTO 33006KT 4SM -SN BR OVC004 02/01 A3016 RMK AO2
                 RAE1758B24E35UPB1758E24SNB35 SLP212 P0001 T00170011 =
2018-01-17 13:18 METAR KHWV 171818Z AUTO 32006KT 3SM UP BR OVC004 02/02 A3016 RMK AO2
                 RAE1758UPB1758 P0000 T00220022 =
2018-01-17 12:56 METAR KHWV 171756Z AUTO 32007KT 5SM -RA BR OVC005 03/03 A3017 RMK AO2 CIG
                 004V008 SLP215 P0001 60003 T00280028 10039 20028 56024 =
2018-01-17 12:29 METAR KHWV 171729Z AUTO 32006KT 5SM -RA BR OVC005 04/03 A3017 RMK AO2 P0001
                 T00390033 =
2018-01-17 11:56 METAR KHWV 171656Z AUTO 36003KT 4SM -RA BR OVC004 04/03 A3018 RMK AO2 RAB1558
                 SLP221 P0001 T00390033 =
2018-01-17 10:56 METAR KHWV 171556Z AUTO 00000KT 9SM OVC005 04/03 A3022 RMK AO2 RAB1458E14 SLP233
                 P0000 T00390033 =
2018-01-17 09:56 METAR KHWV 171456Z AUTO 00000KT 10SM OVC005 03/03 A3024 RMK AO2 SLP239 60001
                 T00330028 56004 =
2018-01-17 08:56 METAR KHWV 171356Z AUTO 10SM OVC005 03/03 A3024 RMK AO2 RAE09 SLP239 P0000
                 T00280028 =
2018-01-17 07:56 METAR KHWV 171256Z AUTO VRB03KT 10SM -RA OVC005 03/03 A3024 RMK AO2 SLP240 P0001
                 T00280028 =
2018-01-17 07:46 METAR KHWV 171246Z AUTO VRB03KT 10SM -RA OVC005 03/03 A3024 RMK AO2 P0001
                 T00280028 =
2018-01-17 07:18 METAR KHWV 171218Z AUTO 00000KT 8SM -RA OVC004 03/03 A3025 RMK AO2 P0001
                 T00330033 =
2018-01-17 06:56 METAR KHWV 171156Z AUTO 00000KT 10SM -RA OVC005 03/03 A3025 RMK AO2 SLP243 P0002
                 60008 70008 T00330033 10050 20033 56005 =
2018-01-17 05:56 METAR KHWV 171056Z AUTO 00000KT 6SM -RA BR OVC004 04/04 A3026 RMK AO2 SLP245
                 P0002 T00390039 =
2018-01-17 05:37 METAR KHWV 171037Z AUTO VRB03KT 4SM -RA BR OVC004 04/04 A3025 RMK AO2 P0002
                 T00390039 =
2018-01-17 05:24 METAR KHWV 171024Z AUTO VRB03KT 4SM -RA BR OVC005 04/04 A3025 RMK AO2 P0001
                 T00390039 =
2018-01-17 04:56 METAR KHWV 170956Z AUTO VRB03KT 5SM -RA BR OVC004 04/04 A3025 RMK AO2 SLP243
                 P0004 T00440044 =
2018-01-17 04:00 METAR KHWV 170900Z AUTO 08004KT 6SM -RA BR BKN004 OVC012 04/04 A3026 RMK AO2 CIG
                 003V008 P0000 T00440044 =
2018-01-17 03:56 METAR KHWV 170856Z AUTO VRB04KT 7SM -RA SCT006 OVC012 04/04 A3026 RMK AO2 RAB28
                 SLP248 P0000 60000 T00440044 58017 =
2018-01-17 03:42 METAR KHWV 170842Z AUTO VRB03KT 8SM -RA FEW008 OVC012 04/04 A3027 RMK AO2 RAB28
                 P0000 T00440044 =
2018-01-17 03:35 METAR KHWV 170835Z AUTO VRB03KT 10SM -RA OVC012 04/04 A3027 RMK AO2 RAB28 P0000
                 T00440044 =
2018-01-17 02:56 METAR KHWV 170756Z AUTO VRB04KT 10SM FEW006 OVC019 04/04 A3029 RMK AO2 SLP257
                 T00440044 =
2018-01-17 02:24 METAR KHWV 170724Z AUTO 12004KT 10SM SCT006 OVC017 04/04 A3029 RMK AO2 T00440044
                 =
2018-01-17 01:56 METAR KHWV 170656Z AUTO 00000KT 10SM BKN007 OVC016 04/04 A3030 RMK AO2 SLP260
                 T00440039 =
2018-01-17 01:11 METAR KHWV 170611Z AUTO VRB04KT 10SM BKN008 OVC015 04/04 A3031 RMK AO2 CIG
                 004V013 T00440039 =
2018-01-17 00:56 METAR KHWV 170556Z AUTO VRB04KT 10SM FEW005 BKN014 OVC021 04/04 A3031 RMK AO2
                 SLP265 T00440039 10044 20017 56019 =
2018-01-17 00:47 METAR KHWV 170547Z AUTO VRB04KT 10SM SCT005 OVC014 04/04 A3032 RMK AO2 T00440039
                 =
2018-01-16 23:56 METAR KHWV 170456Z AUTO VRB03KT 10SM BKN006 OVC010 04/03 A3034 RMK AO2 CIG
                 005V009 SLP274 T00390033 400441089 =
2018-01-16 23:53 METAR KHWV 170453Z AUTO 10004KT 10SM BKN006 OVC010 04/03 A3034 RMK AO2 =
2018-01-16 23:18 METAR KHWV 170418Z AUTO VRB04KT 10SM OVC014 04/02 A3036 RMK AO2 T00390022 =
2018-01-16 22:56 METAR KHWV 170356Z AUTO 10005KT 10SM OVC015 04/02 A3037 RMK AO2 SLP284 T00390022
                 =
2018-01-16 22:36 METAR KHWV 170336Z AUTO VRB04KT 10SM BKN016 OVC038 04/02 A3038 RMK AO2 T00390022
                 =
2018-01-16 21:56 METAR KHWV 170256Z AUTO 11003KT 10SM SCT017 OVC038 03/01 A3039 RMK AO2 SLP292
                 T00280011 56008 =
2018-01-16 21:54 METAR KHWV 170254Z AUTO 10003KT 10SM BKN017 OVC038 03/01 A3039 RMK AO2 =
2018-01-16 20:56 METAR KHWV 170156Z AUTO 00000KT 10SM FEW027 OVC036 02/00 A3040 RMK AO2 SLP296
                 T00220000 =
2018-01-16 19:56 METAR KHWV 170056Z AUTO 00000KT 10SM OVC033 02/00 A3041 RMK AO2 SLP300 T00220000
                 =
2018-01-16 18:56 METAR KHWV 162356Z AUTO 00000KT 10SM OVC030 03/00 A3042 RMK AO2 SLP302 T00280000
                 10039 20022 56004 =
2018-01-16 18:09 METAR KHWV 162309Z AUTO 00000KT 10SM OVC030 02/M01 A3043 RMK AO2 T00221006 =
2018-01-16 17:56 METAR KHWV 162256Z AUTO 00000KT 10SM OVC028 02/M01 A3042 RMK AO2 SLP303
                 T00221006 =
2018-01-16 17:17 METAR KHWV 162217Z AUTO 00000KT 10SM OVC028 03/M01 A3043 RMK AO2 T00281006 =
2018-01-16 16:56 METAR KHWV 162156Z AUTO 11003KT 10SM OVC032 03/M01 A3043 RMK AO2 SLP304
                 T00281006 =

Support USWX by starting your Amazon purchase here.